Thunder radar more information blitzortung!


Rain radar  rain snow radar



Det er et kommunikasjonsproblem . Gå direkte til Meteoalarm sin side: www.meteoalarm.eu og sjekk væradvarsler der .

Nearby METAR Reports

   
ENZV - Stavanger
Oppdatert: Jan 28 2022 9:50 am
For det meste Overskyet  
For det meste Overskyet  
   Vind: Sør 2.1 m/s
Vind: Sør 2.1 m/s
Temperatur: 2°C
Wind Chill: 0°C
Duggpunkt: -2°C
Luftfuktighet: 75%
Barometer: 1025 hPa
Skyer: Mostly Cloudy
Sikt: More than 10 km
Detaljer skyer: For det meste Overskyet 4300 ft
ENZV 280850Z 17004KT 130V190 9999 BKN043 02/M02 Q1025 NOSIG
ENCN - Kristiansand
Oppdatert: Jan 28 2022 9:50 am
Klart  
Klart  
   Vind: varierende 1 m/s
Vind: varierende 1 m/s
Temperatur: 1°C
Duggpunkt: -7°C
Luftfuktighet: 56%
Barometer: 1024 hPa
Sikt: More than 10 km
Detaljer skyer: Klart ft
ENCN 280850Z VRB02KT CAVOK 01/M07 Q1024
ENBR - Bergen
Oppdatert: Jan 28 2022 9:50 am
For det meste Overskyet  
For det meste Overskyet  
   Vind: SØ 3.1 m/s
Vind: SØ 3.1 m/s
Temperatur: 1°C
Wind Chill: -2°C
Duggpunkt: -2°C
Luftfuktighet: 81%
Barometer: 1023 hPa
Skyer: Mostly Cloudy
Sikt: More than 10 km
Detaljer skyer: For det meste Overskyet 4600 ft
ENBR 280850Z 13006KT 9999 BKN046 01/M02 Q1023 NOSIG RMK WIND 1200FT 17010KT
ENGM - Oslo
Oppdatert: Jan 28 2022 9:50 am
Klart  
Klart  
   Vind: varierende 2.6 m/s
Vind: varierende 2.6 m/s
Temperatur: 0°C
Wind Chill: -3°C
Duggpunkt: -11°C
Luftfuktighet: 44%
Barometer: 1019 hPa
Sikt: More than 10 km
Detaljer skyer: Klart ft
ENGM 280850Z VRB05KT CAVOK M00/M11 Q1019 NOSIG
ENVA - Trondheim
Oppdatert: Jan 28 2022 9:50 am
For det meste Overskyet  
For det meste Overskyet  
   Vind: VSV 6.7 m/s
Vind: VSV 6.7 m/s
Temperatur: 1°C
Wind Chill: -4°C
Duggpunkt: -1°C
Luftfuktighet: 87%
Barometer: 1015 hPa
Skyer: Mostly Cloudy
Sikt: More than 10 km
Detaljer skyer: Noen skyer 500 ft,
For det meste Overskyet 2500 ft
ENVA 280850Z 24013KT 9999 FEW005 BKN025 01/M01 Q1015 TEMPO 0800 SHSN VV007 RMK WIND 670FT 25017KT
ENTC - Tromsø
Oppdatert: Jan 28 2022 9:50 am
Lokale byger, For det meste Overskyet  
Lokale byger, For det meste Overskyet  
   Vind: NV 5.1 m/s
Vind: NV 5.1 m/s
Temperatur: -2°C
Wind Chill: -8°C
Duggpunkt: -6°C
Luftfuktighet: 74%
Barometer: 1002 hPa
Skyer: Mostly Cloudy
Sikt: More than 10 km
Detaljer skyer: Delvis overskyet 2000 ft,
For det meste Overskyet 3400 ft
ENTC 280850Z 32010KT 9999 VCSH SCT020 BKN034 M02/M06 Q1002 TEMPO 4000 -SHSN VV012 RMK WIND 2600FT /////KT

Script utviklet av  Saratoga-weather.org Tilpasset for tamplaten av  Weerstation Leuven

Du finner vår vær info også på:

European Weather Network

WeatherCloud

Weather Underground

AWEKAS

HAMweather, WeatherForYou, PWS Weather

Utrustning vi bruker:

vær-station
Davis VP2

vær-programmet
Weather Display

Davis VP2

Weather Display